<?xml version="1.0" encoding="UTF-8" standalone="no" ?>
<gpx xmlns="http://www.topografix.com/GPX/1/1" xmlns:xsi="http://www.w3.org/2001/XMLSchema-instance" xsi:schemaLocation="http://www.topografix.com/GPX/1/1 http://www.topografix.com/GPX/1/1/gpx.xsd" version="1.1" creator="VisuGPX - https://www.visugpx.com">
  <metadata>
    <name>Parcours VTT Aglo 2021</name>
  </metadata>
  <trk>
    <name><![CDATA[Vert Aiguèze]]></name>
    <extensions>
      <line xmlns="http://www.topografix.com/GPX/gpx_style/0/2">
        <color>00fa00</color>
        <width>4</width>
      </line>
    </extensions>
    <trkseg>
      <trkpt lat="44.30202" lon="4.55498">
        <ele>94</ele>
        <time>2021-07-04T13:12:55Z</time>
      </trkpt>
      <trkpt lat="44.30202" lon="4.55498">
        <ele>94</ele>
        <time>2021-07-04T13:12:55Z</time>
      </trkpt>
      <trkpt lat="44.30201" lon="4.555">
        <ele>94</ele>
        <time>2021-07-04T13:12:55Z</time>
      </trkpt>
      <trkpt lat="44.30188" lon="4.55489">
        <ele>95</ele>
        <time>2021-07-04T13:12:59Z</time>
      </trkpt>
      <trkpt lat="44.30184" lon="4.55487">
        <ele>95</ele>
        <time>2021-07-04T13:13:00Z</time>
      </trkpt>
      <trkpt lat="44.30182" lon="4.55486">
        <ele>95</ele>
        <time>2021-07-04T13:13:00Z</time>
      </trkpt>
      <trkpt lat="44.3016" lon="4.55483">
        <ele>95</ele>
        <time>2021-07-04T13:13:06Z</time>
      </trkpt>
      <trkpt lat="44.30137" lon="4.55481">
        <ele>96</ele>
        <time>2021-07-04T13:13:11Z</time>
      </trkpt>
      <trkpt lat="44.30135" lon="4.5547">
        <ele>96</ele>
        <time>2021-07-04T13:13:13Z</time>
      </trkpt>
      <trkpt lat="44.3013" lon="4.55447">
        <ele>95</ele>
        <time>2021-07-04T13:13:17Z</time>
      </trkpt>
      <trkpt lat="44.30124" lon="4.55383">
        <ele>95</ele>
        <time>2021-07-04T13:13:28Z</time>
      </trkpt>
      <trkpt lat="44.3012" lon="4.55356">
        <ele>96</ele>
        <time>2021-07-04T13:13:32Z</time>
      </trkpt>
      <trkpt lat="44.30118" lon="4.55306">
        <ele>96</ele>
        <time>2021-07-04T13:13:41Z</time>
      </trkpt>
      <trkpt lat="44.30117" lon="4.553">
        <ele>97</ele>
        <time>2021-07-04T13:13:42Z</time>
      </trkpt>
      <trkpt lat="44.301" lon="4.55299">
        <ele>96</ele>
        <time>2021-07-04T13:13:46Z</time>
      </trkpt>
      <trkpt lat="44.30082" lon="4.55295">
        <ele>95</ele>
        <time>2021-07-04T13:13:50Z</time>
      </trkpt>
      <trkpt lat="44.30068" lon="4.55283">
        <ele>96</ele>
        <time>2021-07-04T13:13:54Z</time>
      </trkpt>
      <trkpt lat="44.30051" lon="4.55262">
        <ele>96</ele>
        <time>2021-07-04T13:13:59Z</time>
      </trkpt>
      <trkpt lat="44.30036" lon="4.55251">
        <ele>97</ele>
        <time>2021-07-04T13:14:03Z</time>
      </trkpt>
      <trkpt lat="44.30031" lon="4.55247">
        <ele>97</ele>
        <time>2021-07-04T13:14:04Z</time>
      </trkpt>
      <trkpt lat="44.30013" lon="4.55242">
        <ele>97</ele>
        <time>2021-07-04T13:14:09Z</time>
      </trkpt>
      <trkpt lat="44.30015" lon="4.55232">
        <ele>97</ele>
        <time>2021-07-04T13:14:10Z</time>
      </trkpt>
      <trkpt lat="44.30013" lon="4.55242">
        <ele>97</ele>
        <time>2021-07-04T13:14:12Z</time>
      </trkpt>
      <trkpt lat="44.29985" lon="4.55232">
        <ele>97</ele>
        <time>2021-07-04T13:14:19Z</time>
      </trkpt>
      <trkpt lat="44.29972" lon="4.55222">
        <ele>97</ele>
        <time>2021-07-04T13:14:22Z</time>
      </trkpt>
      <trkpt lat="44.29945" lon="4.55192">
        <ele>96</ele>
        <time>2021-07-04T13:14:30Z</time>
      </trkpt>
      <trkpt lat="44.29903" lon="4.55147">
        <ele>95</ele>
        <time>2021-07-04T13:14:43Z</time>
      </trkpt>
      <trkpt lat="44.29889" lon="4.55132">
        <ele>94</ele>
        <time>2021-07-04T13:14:47Z</time>
      </trkpt>
      <trkpt lat="44.29858" lon="4.55111">
        <ele>93</ele>
        <time>2021-07-04T13:14:55Z</time>
      </trkpt>
      <trkpt lat="44.29853" lon="4.5511">
        <ele>93</ele>
        <time>2021-07-04T13:14:56Z</time>
      </trkpt>
      <trkpt lat="44.29851" lon="4.55096">
        <ele>93</ele>
        <time>2021-07-04T13:14:58Z</time>
      </trkpt>
      <trkpt lat="44.29848" lon="4.55082">
        <ele>93</ele>
        <time>2021-07-04T13:15:01Z</time>
      </trkpt>
      <trkpt lat="44.29835" lon="4.5505">
        <ele>93</ele>
        <time>2021-07-04T13:15:07Z</time>
      </trkpt>
      <trkpt lat="44.29826" lon="4.55025">
        <ele>93</ele>
        <time>2021-07-04T13:15:12Z</time>
      </trkpt>
      <trkpt lat="44.29822" lon="4.54998">
        <ele>93</ele>
        <time>2021-07-04T13:15:16Z</time>
      </trkpt>
      <trkpt lat="44.29819" lon="4.54983">
        <ele>93</ele>
        <time>2021-07-04T13:15:19Z</time>
      </trkpt>
      <trkpt lat="44.29817" lon="4.54936">
        <ele>94</ele>
        <time>2021-07-04T13:15:27Z</time>
      </trkpt>
      <trkpt lat="44.29814" lon="4.54912">
        <ele>94</ele>
        <time>2021-07-04T13:15:31Z</time>
      </trkpt>
      <trkpt lat="44.29815" lon="4.54887">
        <ele>94</ele>
        <time>2021-07-04T13:15:35Z</time>
      </trkpt>
      <trkpt lat="44.29816" lon="4.54879">
        <ele>95</ele>
        <time>2021-07-04T13:15:36Z</time>
      </trkpt>
      <trkpt lat="44.29816" lon="4.54862">
        <ele>95</ele>
        <time>2021-07-04T13:15:39Z</time>
      </trkpt>
      <trkpt lat="44.29817" lon="4.54822">
        <ele>95</ele>
        <time>2021-07-04T13:15:46Z</time>
      </trkpt>
      <trkpt lat="44.29828" lon="4.54767">
        <ele>94</ele>
        <time>2021-07-04T13:15:56Z</time>
      </trkpt>
      <trkpt lat="44.29831" lon="4.5475">
        <ele>94</ele>
        <time>2021-07-04T13:15:58Z</time>
      </trkpt>
      <trkpt lat="44.29832" lon="4.54737">
        <ele>95</ele>
        <time>2021-07-04T13:16:01Z</time>
      </trkpt>
      <trkpt lat="44.29831" lon="4.54727">
        <ele>95</ele>
        <time>2021-07-04T13:16:02Z</time>
      </trkpt>
      <trkpt lat="44.29831" lon="4.54725">
        <ele>95</ele>
        <time>2021-07-04T13:16:03Z</time>
      </trkpt>
      <trkpt lat="44.29827" lon="4.54715">
        <ele>95</ele>
        <time>2021-07-04T13:16:05Z</time>
      </trkpt>
      <trkpt lat="44.29822" lon="4.54709">
        <ele>95</ele>
        <time>2021-07-04T13:16:06Z</time>
      </trkpt>
      <trkpt lat="44.29814" lon="4.547">
        <ele>95</ele>
        <time>2021-07-04T13:16:09Z</time>
      </trkpt>
      <trkpt lat="44.29806" lon="4.54692">
        <ele>95</ele>
        <time>2021-07-04T13:16:11Z</time>
      </trkpt>
      <trkpt lat="44.298" lon="4.54683">
        <ele>95</ele>
        <time>2021-07-04T13:16:13Z</time>
      </trkpt>
      <trkpt lat="44.29794" lon="4.54674">
        <ele>95</ele>
        <time>2021-07-04T13:16:15Z</time>
      </trkpt>
      <trkpt lat="44.29761" lon="4.54607">
        <ele>95</ele>
        <time>2021-07-04T13:16:29Z</time>
      </trkpt>
      <trkpt lat="44.29754" lon="4.54594">
        <ele>95</ele>
        <time>2021-07-04T13:16:31Z</time>
      </trkpt>
      <trkpt lat="44.29748" lon="4.54578">
        <ele>95</ele>
        <time>2021-07-04T13:16:34Z</time>
      </trkpt>
      <trkpt lat="44.29739" lon="4.54555">
        <ele>94</ele>
        <time>2021-07-04T13:16:39Z</time>
      </trkpt>
      <trkpt lat="44.29734" lon="4.54539">
        <ele>94</ele>
        <time>2021-07-04T13:16:42Z</time>
      </trkpt>
      <trkpt lat="44.2973" lon="4.5452">
        <ele>94</ele>
        <time>2021-07-04T13:16:45Z</time>
      </trkpt>
      <trkpt lat="44.29726" lon="4.54502">
        <ele>93</ele>
        <time>2021-07-04T13:16:48Z</time>
      </trkpt>
      <trkpt lat="44.29726" lon="4.54482">
        <ele>94</ele>
        <time>2021-07-04T13:16:51Z</time>
      </trkpt>
      <trkpt lat="44.29725" lon="4.54467">
        <ele>94</ele>
        <time>2021-07-04T13:16:54Z</time>
      </trkpt>
      <trkpt lat="44.29725" lon="4.54449">
        <ele>95</ele>
        <time>2021-07-04T13:16:57Z</time>
      </trkpt>
      <trkpt lat="44.29724" lon="4.54437">
        <ele>95</ele>
        <time>2021-07-04T13:16:59Z</time>
      </trkpt>
      <trkpt lat="44.2972" lon="4.54426">
        <ele>96</ele>
        <time>2021-07-04T13:17:01Z</time>
      </trkpt>
      <trkpt lat="44.29699" lon="4.54385">
        <ele>96</ele>
        <time>2021-07-04T13:17:09Z</time>
      </trkpt>
      <trkpt lat="44.29697" lon="4.54372">
        <ele>96</ele>
        <time>2021-07-04T13:17:12Z</time>
      </trkpt>
      <trkpt lat="44.29695" lon="4.54352">
        <ele>96</ele>
        <time>2021-07-04T13:17:15Z</time>
      </trkpt>
      <trkpt lat="44.29694" lon="4.54326">
        <ele>97</ele>
        <time>2021-07-04T13:17:19Z</time>
      </trkpt>
      <trkpt lat="44.29691" lon="4.54293">
        <ele>97</ele>
        <time>2021-07-04T13:17:25Z</time>
      </trkpt>
      <trkpt lat="44.29688" lon="4.54255">
        <ele>98</ele>
        <time>2021-07-04T13:17:31Z</time>
      </trkpt>
      <trkpt lat="44.29683" lon="4.542">
        <ele>97</ele>
        <time>2021-07-04T13:17:41Z</time>
      </trkpt>
      <trkpt lat="44.29681" lon="4.54174">
        <ele>96</ele>
        <time>2021-07-04T13:17:45Z</time>
      </trkpt>
      <trkpt lat="44.29678" lon="4.54137">
        <ele>96</ele>
        <time>2021-07-04T13:17:51Z</time>
      </trkpt>
      <trkpt lat="44.29674" lon="4.54085">
        <ele>97</ele>
        <time>2021-07-04T13:18:00Z</time>
      </trkpt>
      <trkpt lat="44.29672" lon="4.54064">
        <ele>98</ele>
        <time>2021-07-04T13:18:03Z</time>
      </trkpt>
      <trkpt lat="44.29672" lon="4.54043">
        <ele>98</ele>
        <time>2021-07-04T13:18:07Z</time>
      </trkpt>
      <trkpt lat="44.29674" lon="4.54025">
        <ele>98</ele>
        <time>2021-07-04T13:18:10Z</time>
      </trkpt>
      <trkpt lat="44.29673" lon="4.54008">
        <ele>98</ele>
        <time>2021-07-04T13:18:13Z</time>
      </trkpt>
      <trkpt lat="44.29671" lon="4.53989">
        <ele>98</ele>
        <time>2021-07-04T13:18:16Z</time>
      </trkpt>
      <trkpt lat="44.29668" lon="4.5397">
        <ele>99</ele>
        <time>2021-07-04T13:18:19Z</time>
      </trkpt>
      <trkpt lat="44.29668" lon="4.53949">
        <ele>99</ele>
        <time>2021-07-04T13:18:23Z</time>
      </trkpt>
      <trkpt lat="44.29669" lon="4.53925">
        <ele>100</ele>
        <time>2021-07-04T13:18:27Z</time>
      </trkpt>
      <trkpt lat="44.29667" lon="4.5391">
        <ele>100</ele>
        <time>2021-07-04T13:18:29Z</time>
      </trkpt>
      <trkpt lat="44.29665" lon="4.53888">
        <ele>101</ele>
        <time>2021-07-04T13:18:33Z</time>
      </trkpt>
      <trkpt lat="44.29656" lon="4.53841">
        <ele>101</ele>
        <time>2021-07-04T13:18:41Z</time>
      </trkpt>
      <trkpt lat="44.29655" lon="4.53834">
        <ele>101</ele>
        <time>2021-07-04T13:18:42Z</time>
      </trkpt>
      <trkpt lat="44.29653" lon="4.53819">
        <ele>102</ele>
        <time>2021-07-04T13:18:45Z</time>
      </trkpt>
      <trkpt lat="44.29652" lon="4.53798">
        <ele>102</ele>
        <time>2021-07-04T13:18:48Z</time>
      </trkpt>
      <trkpt lat="44.29651" lon="4.53773">
        <ele>103</ele>
        <time>2021-07-04T13:18:53Z</time>
      </trkpt>
      <trkpt lat="44.29652" lon="4.53744">
        <ele>103</ele>
        <time>2021-07-04T13:18:58Z</time>
      </trkpt>
      <trkpt lat="44.29654" lon="4.53716">
        <ele>103</ele>
        <time>2021-07-04T13:19:02Z</time>
      </trkpt>
      <trkpt lat="44.29654" lon="4.53643">
        <ele>103</ele>
        <time>2021-07-04T13:19:14Z</time>
      </trkpt>
      <trkpt lat="44.29654" lon="4.53638">
        <ele>103</ele>
        <time>2021-07-04T13:19:15Z</time>
      </trkpt>
      <trkpt lat="44.29656" lon="4.53631">
        <ele>104</ele>
        <time>2021-07-04T13:19:17Z</time>
      </trkpt>
      <trkpt lat="44.29659" lon="4.53625">
        <ele>104</ele>
        <time>2021-07-04T13:19:18Z</time>
      </trkpt>
      <trkpt lat="44.29659" lon="4.53625">
        <ele>104</ele>
        <time>2021-07-04T13:19:18Z</time>
      </trkpt>
      <trkpt lat="44.29659" lon="4.53624">
        <ele>104</ele>
        <time>2021-07-04T13:19:18Z</time>
      </trkpt>
      <trkpt lat="44.29665" lon="4.53636">
        <ele>104</ele>
        <time>2021-07-04T13:19:20Z</time>
      </trkpt>
      <trkpt lat="44.2968" lon="4.53662">
        <ele>104</ele>
        <time>2021-07-04T13:19:26Z</time>
      </trkpt>
      <trkpt lat="44.29698" lon="4.53688">
        <ele>106</ele>
        <time>2021-07-04T13:19:32Z</time>
      </trkpt>
      <trkpt lat="44.29716" lon="4.53712">
        <ele>107</ele>
        <time>2021-07-04T13:19:38Z</time>
      </trkpt>
      <trkpt lat="44.29727" lon="4.53718">
        <ele>108</ele>
        <time>2021-07-04T13:19:41Z</time>
      </trkpt>
      <trkpt lat="44.29733" lon="4.53719">
        <ele>108</ele>
        <time>2021-07-04T13:19:42Z</time>
      </trkpt>
      <trkpt lat="44.29733" lon="4.53719">
        <ele>108</ele>
        <time>2021-07-04T13:19:42Z</time>
      </trkpt>
      <trkpt lat="44.29727" lon="4.53718">
        <ele>108</ele>
        <time>2021-07-04T13:19:43Z</time>
      </trkpt>
      <trkpt lat="44.29726" lon="4.53717">
        <ele>108</ele>
        <time>2021-07-04T13:19:44Z</time>
      </trkpt>
      <trkpt lat="44.29727" lon="4.53728">
        <ele>108</ele>
        <time>2021-07-04T13:19:46Z</time>
      </trkpt>
      <trkpt lat="44.29742" lon="4.53753">
        <ele>108</ele>
        <time>2021-07-04T13:19:51Z</time>
      </trkpt>
      <trkpt lat="44.29749" lon="4.53769">
        <ele>108</ele>
        <time>2021-07-04T13:19:54Z</time>
      </trkpt>
      <trkpt lat="44.2976" lon="4.53803">
        <ele>107</ele>
        <time>2021-07-04T13:20:00Z</time>
      </trkpt>
      <trkpt lat="44.29764" lon="4.53816">
        <ele>107</ele>
        <time>2021-07-04T13:20:03Z</time>
      </trkpt>
      <trkpt lat="44.29782" lon="4.53853">
        <ele>107</ele>
        <time>2021-07-04T13:20:10Z</time>
      </trkpt>
      <trkpt lat="44.29803" lon="4.53902">
        <ele>108</ele>
        <time>2021-07-04T13:20:20Z</time>
      </trkpt>
      <trkpt lat="44.29822" lon="4.53943">
        <ele>108</ele>
        <time>2021-07-04T13:20:28Z</time>
      </trkpt>
      <trkpt lat="44.29838" lon="4.53983">
        <ele>108</ele>
        <time>2021-07-04T13:20:36Z</time>
      </trkpt>
      <trkpt lat="44.29841" lon="4.53995">
        <ele>107</ele>
        <time>2021-07-04T13:20:38Z</time>
      </trkpt>
      <trkpt lat="44.29849" lon="4.54016">
        <ele>108</ele>
        <time>2021-07-04T13:20:42Z</time>
      </trkpt>
      <trkpt lat="44.29859" lon="4.54037">
        <ele>108</ele>
        <time>2021-07-04T13:20:46Z</time>
      </trkpt>
      <trkpt lat="44.29871" lon="4.54057">
        <ele>109</ele>
        <time>2021-07-04T13:20:50Z</time>
      </trkpt>
      <trkpt lat="44.29931" lon="4.54131">
        <ele>111</ele>
        <time>2021-07-04T13:21:09Z</time>
      </trkpt>
      <trkpt lat="44.29957" lon="4.54162">
        <ele>112</ele>
        <time>2021-07-04T13:21:17Z</time>
      </trkpt>
      <trkpt lat="44.2998" lon="4.54182">
        <ele>112</ele>
        <time>2021-07-04T13:21:23Z</time>
      </trkpt>
      <trkpt lat="44.29988" lon="4.54187">
        <ele>112</ele>
        <time>2021-07-04T13:21:25Z</time>
      </trkpt>
      <trkpt lat="44.29992" lon="4.54191">
        <ele>112</ele>
        <time>2021-07-04T13:21:26Z</time>
      </trkpt>
      <trkpt lat="44.3002" lon="4.54209">
        <ele>112</ele>
        <time>2021-07-04T13:21:34Z</time>
      </trkpt>
      <trkpt lat="44.30038" lon="4.54225">
        <ele>112</ele>
        <time>2021-07-04T13:21:39Z</time>
      </trkpt>
      <trkpt lat="44.30048" lon="4.54235">
        <ele>112</ele>
        <time>2021-07-04T13:21:41Z</time>
      </trkpt>
      <trkpt lat="44.30051" lon="4.54239">
        <ele>112</ele>
        <time>2021-07-04T13:21:42Z</time>
      </trkpt>
      <trkpt lat="44.3006" lon="4.54246">
        <ele>112</ele>
        <time>2021-07-04T13:21:45Z</time>
      </trkpt>
      <trkpt lat="44.30069" lon="4.54255">
        <ele>112</ele>
        <time>2021-07-04T13:21:47Z</time>
      </trkpt>
      <trkpt lat="44.30073" lon="4.54257">
        <ele>112</ele>
        <time>2021-07-04T13:21:48Z</time>
      </trkpt>
      <trkpt lat="44.30075" lon="4.54259">
        <ele>112</ele>
        <time>2021-07-04T13:21:49Z</time>
      </trkpt>
      <trkpt lat="44.30081" lon="4.5426">
        <ele>113</ele>
        <time>2021-07-04T13:21:50Z</time>
      </trkpt>
      <trkpt lat="44.30085" lon="4.54257">
        <ele>113</ele>
        <time>2021-07-04T13:21:51Z</time>
      </trkpt>
      <trkpt lat="44.3009" lon="4.54254">
        <ele>113</ele>
        <time>2021-07-04T13:21:53Z</time>
      </trkpt>
      <trkpt lat="44.30088" lon="4.54264">
        <ele>113</ele>
        <time>2021-07-04T13:21:54Z</time>
      </trkpt>
      <trkpt lat="44.30086" lon="4.54269">
        <ele>113</ele>
        <time>2021-07-04T13:21:55Z</time>
      </trkpt>
      <trkpt lat="44.30071" lon="4.54279">
        <ele>111</ele>
        <time>2021-07-04T13:21:59Z</time>
      </trkpt>
      <trkpt lat="44.30068" lon="4.54282">
        <ele>111</ele>
        <time>2021-07-04T13:22:00Z</time>
      </trkpt>
      <trkpt lat="44.30052" lon="4.54301">
        <ele>110</ele>
        <time>2021-07-04T13:22:05Z</time>
      </trkpt>
      <trkpt lat="44.30038" lon="4.54314">
        <ele>109</ele>
        <time>2021-07-04T13:22:09Z</time>
      </trkpt>
      <trkpt lat="44.30035" lon="4.54318">
        <ele>109</ele>
        <time>2021-07-04T13:22:10Z</time>
      </trkpt>
      <trkpt lat="44.30031" lon="4.54325">
        <ele>109</ele>
        <time>2021-07-04T13:22:11Z</time>
      </trkpt>
      <trkpt lat="44.30026" lon="4.54332">
        <ele>109</ele>
        <time>2021-07-04T13:22:13Z</time>
      </trkpt>
      <trkpt lat="44.3002" lon="4.54339">
        <ele>108</ele>
        <time>2021-07-04T13:22:15Z</time>
      </trkpt>
      <trkpt lat="44.30005" lon="4.54365">
        <ele>107</ele>
        <time>2021-07-04T13:22:21Z</time>
      </trkpt>
      <trkpt lat="44.29986" lon="4.54385">
        <ele>106</ele>
        <time>2021-07-04T13:22:26Z</time>
      </trkpt>
      <trkpt lat="44.29983" lon="4.54387">
        <ele>106</ele>
        <time>2021-07-04T13:22:27Z</time>
      </trkpt>
      <trkpt lat="44.29977" lon="4.54391">
        <ele>105</ele>
        <time>2021-07-04T13:22:28Z</time>
      </trkpt>
      <trkpt lat="44.29962" lon="4.54388">
        <ele>105</ele>
        <time>2021-07-04T13:22:32Z</time>
      </trkpt>
      <trkpt lat="44.29954" lon="4.54386">
        <ele>104</ele>
        <time>2021-07-04T13:22:34Z</time>
      </trkpt>
      <trkpt lat="44.29948" lon="4.54386">
        <ele>104</ele>
        <time>2021-07-04T13:22:35Z</time>
      </trkpt>
      <trkpt lat="44.29943" lon="4.54386">
        <ele>104</ele>
        <time>2021-07-04T13:22:36Z</time>
      </trkpt>
      <trkpt lat="44.29933" lon="4.54388">
        <ele>103</ele>
        <time>2021-07-04T13:22:39Z</time>
      </trkpt>
      <trkpt lat="44.29927" lon="4.54388">
        <ele>103</ele>
        <time>2021-07-04T13:22:40Z</time>
      </trkpt>
      <trkpt lat="44.29921" lon="4.54393">
        <ele>103</ele>
        <time>2021-07-04T13:22:42Z</time>
      </trkpt>
      <trkpt lat="44.2992" lon="4.54398">
        <ele>102</ele>
        <time>2021-07-04T13:22:43Z</time>
      </trkpt>
      <trkpt lat="44.29919" lon="4.54403">
        <ele>102</ele>
        <time>2021-07-04T13:22:44Z</time>
      </trkpt>
      <trkpt lat="44.2992" lon="4.54413">
        <ele>102</ele>
        <time>2021-07-04T13:22:45Z</time>
      </trkpt>
      <trkpt lat="44.29927" lon="4.54427">
        <ele>103</ele>
        <time>2021-07-04T13:22:48Z</time>
      </trkpt>
      <trkpt lat="44.2994" lon="4.5445">
        <ele>104</ele>
        <time>2021-07-04T13:22:53Z</time>
      </trkpt>
      <trkpt lat="44.29952" lon="4.54469">
        <ele>105</ele>
        <time>2021-07-04T13:22:57Z</time>
      </trkpt>
      <trkpt lat="44.29964" lon="4.54483">
        <ele>107</ele>
        <time>2021-07-04T13:23:01Z</time>
      </trkpt>
      <trkpt lat="44.29977" lon="4.54496">
        <ele>108</ele>
        <time>2021-07-04T13:23:05Z</time>
      </trkpt>
      <trkpt lat="44.29988" lon="4.54518">
        <ele>110</ele>
        <time>2021-07-04T13:23:09Z</time>
      </trkpt>
      <trkpt lat="44.30002" lon="4.54532">
        <ele>111</ele>
        <time>2021-07-04T13:23:13Z</time>
      </trkpt>
      <trkpt lat="44.30011" lon="4.54543">
        <ele>112</ele>
        <time>2021-07-04T13:23:16Z</time>
      </trkpt>
      <trkpt lat="44.30014" lon="4.54565">
        <ele>112</ele>
        <time>2021-07-04T13:23:20Z</time>
      </trkpt>
      <trkpt lat="44.3002" lon="4.54586">
        <ele>113</ele>
        <time>2021-07-04T13:23:23Z</time>
      </trkpt>
      <trkpt lat="44.30054" lon="4.54582">
        <ele>115</ele>
        <time>2021-07-04T13:23:31Z</time>
      </trkpt>
      <trkpt lat="44.30084" lon="4.54583">
        <ele>116</ele>
        <time>2021-07-04T13:23:38Z</time>
      </trkpt>
      <trkpt lat="44.30108" lon="4.54581">
        <ele>117</ele>
        <time>2021-07-04T13:23:44Z</time>
      </trkpt>
      <trkpt lat="44.30133" lon="4.54578">
        <ele>118</ele>
        <time>2021-07-04T13:23:50Z</time>
      </trkpt>
      <trkpt lat="44.30138" lon="4.54581">
        <ele>118</ele>
        <time>2021-07-04T13:23:51Z</time>
      </trkpt>
      <trkpt lat="44.30143" lon="4.54582">
        <ele>118</ele>
        <time>2021-07-04T13:23:52Z</time>
      </trkpt>
      <trkpt lat="44.30133" lon="4.54616">
        <ele>117</ele>
        <time>2021-07-04T13:23:58Z</time>
      </trkpt>
      <trkpt lat="44.30141" lon="4.54629">
        <ele>118</ele>
        <time>2021-07-04T13:24:01Z</time>
      </trkpt>
      <trkpt lat="44.30153" lon="4.54663">
        <ele>118</ele>
        <time>2021-07-04T13:24:08Z</time>
      </trkpt>
      <trkpt lat="44.30168" lon="4.54697">
        <ele>118</ele>
        <time>2021-07-04T13:24:14Z</time>
      </trkpt>
      <trkpt lat="44.30196" lon="4.54745">
        <ele>119</ele>
        <time>2021-07-04T13:24:25Z</time>
      </trkpt>
      <trkpt lat="44.30215" lon="4.54785">
        <ele>117</ele>
        <time>2021-07-04T13:24:33Z</time>
      </trkpt>
      <trkpt lat="44.30234" lon="4.54824">
        <ele>115</ele>
        <time>2021-07-04T13:24:41Z</time>
      </trkpt>
      <trkpt lat="44.30246" lon="4.54843">
        <ele>114</ele>
        <time>2021-07-04T13:24:45Z</time>
      </trkpt>
      <trkpt lat="44.30296" lon="4.54907">
        <ele>115</ele>
        <time>2021-07-04T13:25:01Z</time>
      </trkpt>
      <trkpt lat="44.30314" lon="4.54932">
        <ele>114</ele>
        <time>2021-07-04T13:25:07Z</time>
      </trkpt>
      <trkpt lat="44.3034" lon="4.5496">
        <ele>114</ele>
        <time>2021-07-04T13:25:14Z</time>
      </trkpt>
      <trkpt lat="44.30365" lon="4.54988">
        <ele>114</ele>
        <time>2021-07-04T13:25:22Z</time>
      </trkpt>
      <trkpt lat="44.30383" lon="4.55004">
        <ele>114</ele>
        <time>2021-07-04T13:25:27Z</time>
      </trkpt>
      <trkpt lat="44.30394" lon="4.55008">
        <ele>114</ele>
        <time>2021-07-04T13:25:29Z</time>
      </trkpt>
      <trkpt lat="44.30407" lon="4.55018">
        <ele>114</ele>
        <time>2021-07-04T13:25:33Z</time>
      </trkpt>
      <trkpt lat="44.30433" lon="4.55045">
        <ele>115</ele>
        <time>2021-07-04T13:25:40Z</time>
      </trkpt>
      <trkpt lat="44.30465" lon="4.55079">
        <ele>115</ele>
        <time>2021-07-04T13:25:50Z</time>
      </trkpt>
      <trkpt lat="44.30473" lon="4.55094">
        <ele>115</ele>
        <time>2021-07-04T13:25:53Z</time>
      </trkpt>
      <trkpt lat="44.30479" lon="4.55107">
        <ele>114</ele>
        <time>2021-07-04T13:25:56Z</time>
      </trkpt>
      <trkpt lat="44.30482" lon="4.55152">
        <ele>111</ele>
        <time>2021-07-04T13:26:03Z</time>
      </trkpt>
      <trkpt lat="44.30482" lon="4.55153">
        <ele>111</ele>
        <time>2021-07-04T13:26:03Z</time>
      </trkpt>
      <trkpt lat="44.30482" lon="4.55153">
        <ele>111</ele>
        <time>2021-07-04T13:26:03Z</time>
      </trkpt>
      <trkpt lat="44.30487" lon="4.55172">
        <ele>110</ele>
        <time>2021-07-04T13:26:07Z</time>
      </trkpt>
      <trkpt lat="44.305" lon="4.55218">
        <ele>108</ele>
        <time>2021-07-04T13:26:15Z</time>
      </trkpt>
      <trkpt lat="44.30506" lon="4.55252">
        <ele>107</ele>
        <time>2021-07-04T13:26:21Z</time>
      </trkpt>
      <trkpt lat="44.30508" lon="4.55269">
        <ele>107</ele>
        <time>2021-07-04T13:26:24Z</time>
      </trkpt>
      <trkpt lat="44.30507" lon="4.55282">
        <ele>107</ele>
        <time>2021-07-04T13:26:26Z</time>
      </trkpt>
      <trkpt lat="44.30504" lon="4.55292">
        <ele>107</ele>
        <time>2021-07-04T13:26:28Z</time>
      </trkpt>
      <trkpt lat="44.3049" lon="4.55305">
        <ele>106</ele>
        <time>2021-07-04T13:26:32Z</time>
      </trkpt>
      <trkpt lat="44.30466" lon="4.55332">
        <ele>105</ele>
        <time>2021-07-04T13:26:39Z</time>
      </trkpt>
      <trkpt lat="44.30438" lon="4.55366">
        <ele>101</ele>
        <time>2021-07-04T13:26:47Z</time>
      </trkpt>
      <trkpt lat="44.30433" lon="4.55364">
        <ele>101</ele>
        <time>2021-07-04T13:26:49Z</time>
      </trkpt>
      <trkpt lat="44.30416" lon="4.55364">
        <ele>100</ele>
        <time>2021-07-04T13:26:53Z</time>
      </trkpt>
      <trkpt lat="44.30402" lon="4.55372">
        <ele>99</ele>
        <time>2021-07-04T13:26:56Z</time>
      </trkpt>
      <trkpt lat="44.30386" lon="4.55389">
        <ele>98</ele>
        <time>2021-07-04T13:27:01Z</time>
      </trkpt>
      <trkpt lat="44.30352" lon="4.55407">
        <ele>96</ele>
        <time>2021-07-04T13:27:09Z</time>
      </trkpt>
      <trkpt lat="44.30333" lon="4.55416">
        <ele>95</ele>
        <time>2021-07-04T13:27:14Z</time>
      </trkpt>
      <trkpt lat="44.30328" lon="4.55417">
        <ele>95</ele>
        <time>2021-07-04T13:27:15Z</time>
      </trkpt>
      <trkpt lat="44.30307" lon="4.55428">
        <ele>95</ele>
        <time>2021-07-04T13:27:20Z</time>
      </trkpt>
      <trkpt lat="44.30303" lon="4.55429">
        <ele>95</ele>
        <time>2021-07-04T13:27:21Z</time>
      </trkpt>
      <trkpt lat="44.30298" lon="4.55434">
        <ele>95</ele>
        <time>2021-07-04T13:27:23Z</time>
      </trkpt>
      <trkpt lat="44.30276" lon="4.55452">
        <ele>94</ele>
        <time>2021-07-04T13:27:29Z</time>
      </trkpt>
      <trkpt lat="44.30256" lon="4.55468">
        <ele>94</ele>
        <time>2021-07-04T13:27:34Z</time>
      </trkpt>
      <trkpt lat="44.30255" lon="4.55469">
        <ele>94</ele>
        <time>2021-07-04T13:27:34Z</time>
      </trkpt>
      <trkpt lat="44.30246" lon="4.55473">
        <ele>94</ele>
        <time>2021-07-04T13:27:37Z</time>
      </trkpt>
      <trkpt lat="44.30223" lon="4.55477">
        <ele>94</ele>
        <time>2021-07-04T13:27:42Z</time>
      </trkpt>
      <trkpt lat="44.30196" lon="4.55484">
        <ele>95</ele>
        <time>2021-07-04T13:27:48Z</time>
      </trkpt>
      <trkpt lat="44.30188" lon="4.55489">
        <ele>95</ele>
        <time>2021-07-04T13:27:50Z</time>
      </trkpt>
      <trkpt lat="44.30203" lon="4.55502">
        <ele>94</ele>
        <time>2021-07-04T13:27:55Z</time>
      </trkpt>
    </trkseg>
  </trk>
</gpx>